createdAt,value
2018-05-09T00:01:20.115Z,9.20
2018-05-09T00:03:47.711Z,9.10
2018-05-09T00:06:15.319Z,9.10
2018-05-09T00:08:42.958Z,9.00
2018-05-09T00:11:10.576Z,9.00
2018-05-09T00:13:38.172Z,9.00
2018-05-09T00:16:05.779Z,8.90
2018-05-09T00:18:33.394Z,8.90
2018-05-09T00:21:01.025Z,8.90
2018-05-09T00:23:28.670Z,8.80
2018-05-09T00:25:56.279Z,8.80
2018-05-09T00:28:23.877Z,8.70
2018-05-09T00:30:51.485Z,8.70
2018-05-09T00:33:19.206Z,8.70
2018-05-09T00:35:46.803Z,8.60
2018-05-09T00:38:14.411Z,8.60
2018-05-09T00:40:41.997Z,8.60
2018-05-09T00:43:09.599Z,8.60
2018-05-09T00:45:37.202Z,8.50
2018-05-09T00:48:04.797Z,8.50
2018-05-09T00:50:32.435Z,8.50
2018-05-09T00:53:00.094Z,8.50
2018-05-09T00:55:27.698Z,8.50
2018-05-09T00:57:55.289Z,8.40
2018-05-09T01:00:22.910Z,8.40
2018-05-09T01:02:50.503Z,8.40
2018-05-09T01:05:18.086Z,8.40
2018-05-09T01:07:45.701Z,8.40
2018-05-09T01:10:14.077Z,8.30
2018-05-09T01:12:41.714Z,8.30
2018-05-09T01:15:09.332Z,8.30
2018-05-09T01:17:36.928Z,8.30
2018-05-09T01:20:04.586Z,8.30
2018-05-09T01:22:32.190Z,8.20
2018-05-09T01:24:59.793Z,8.20
2018-05-09T01:27:27.379Z,8.20
2018-05-09T01:29:54.989Z,8.20
2018-05-09T01:32:23.353Z,8.10
2018-05-09T01:34:50.966Z,8.10
2018-05-09T01:37:18.566Z,8.10
2018-05-09T01:39:46.154Z,8.00
2018-05-09T01:42:13.758Z,8.00
2018-05-09T01:44:42.130Z,8.00
2018-05-09T01:47:09.730Z,7.90
2018-05-09T01:49:37.322Z,8.00
2018-05-09T01:52:04.949Z,8.00
2018-05-09T01:54:32.541Z,7.90
2018-05-09T01:57:00.153Z,7.90
2018-05-09T01:59:28.518Z,7.80
2018-05-09T02:01:56.878Z,7.80
2018-05-09T02:04:24.509Z,7.80
2018-05-09T02:06:52.106Z,7.80
2018-05-09T02:09:19.708Z,7.80
2018-05-09T02:11:47.330Z,7.70
2018-05-09T02:14:14.954Z,7.70
2018-05-09T02:16:42.558Z,7.70
2018-05-09T02:19:10.918Z,7.60
2018-05-09T02:21:38.518Z,7.60
2018-05-09T02:24:06.150Z,7.60
2018-05-09T02:26:35.278Z,7.50
2018-05-09T02:29:02.901Z,7.50
2018-05-09T02:31:30.498Z,7.50
2018-05-09T02:33:58.094Z,7.50
2018-05-09T02:36:25.774Z,7.50
2018-05-09T02:38:53.369Z,7.40
2018-05-09T02:41:20.970Z,7.50
2018-05-09T02:43:48.680Z,7.50
2018-05-09T02:46:16.207Z,7.50
2018-05-09T02:48:43.799Z,7.50
2018-05-09T02:51:11.406Z,7.50
2018-05-09T02:53:39.003Z,7.50
2018-05-09T02:56:06.627Z,7.50
2018-05-09T02:58:34.231Z,7.50
2018-05-09T03:01:02.594Z,7.60
2018-05-09T03:03:30.199Z,7.50
2018-05-09T03:05:57.811Z,7.60
2018-05-09T03:08:25.401Z,7.60
2018-05-09T03:10:53.802Z,7.60
2018-05-09T03:13:21.412Z,7.60
2018-05-09T03:15:49.007Z,7.60
2018-05-09T03:18:18.169Z,7.70
2018-05-09T03:20:45.794Z,7.70
2018-05-09T03:23:13.381Z,7.70
2018-05-09T03:25:40.975Z,7.80
2018-05-09T03:28:09.345Z,8.00
2018-05-09T03:30:37.707Z,8.00
2018-05-09T03:33:05.466Z,8.00
2018-05-09T03:35:33.109Z,8.10
2018-05-09T03:38:00.698Z,8.20
2018-05-09T03:40:28.340Z,8.30
2018-05-09T03:42:55.971Z,8.40
2018-05-09T03:45:23.594Z,8.50
2018-05-09T03:47:51.235Z,8.70
2018-05-09T03:50:18.878Z,8.80
2018-05-09T03:52:46.471Z,8.90
2018-05-09T03:55:14.119Z,9.10
2018-05-09T03:57:41.766Z,9.20
2018-05-09T04:00:09.418Z,9.30
2018-05-09T04:02:48.747Z,9.40
2018-05-09T04:05:28.814Z,9.70
2018-05-09T04:08:08.154Z,9.60
2018-05-09T04:10:35.750Z,9.70
2018-05-09T04:13:03.423Z,9.80
2018-05-09T04:15:30.982Z,10.00
2018-05-09T04:17:58.606Z,10.10
2018-05-09T04:20:26.225Z,10.20
2018-05-09T04:22:53.866Z,10.30
2018-05-09T04:25:21.515Z,10.40
2018-05-09T04:27:49.109Z,10.50
2018-05-09T04:30:16.725Z,10.70
2018-05-09T04:32:45.087Z,10.90
2018-05-09T04:35:13.482Z,11.00
2018-05-09T04:37:41.866Z,11.10
2018-05-09T04:40:10.278Z,11.20
2018-05-09T04:42:37.935Z,11.20
2018-05-09T04:45:05.628Z,11.40
2018-05-09T04:47:33.270Z,11.60
2018-05-09T04:50:00.870Z,11.70
2018-05-09T04:52:28.539Z,11.90
2018-05-09T04:54:56.939Z,12.30
2018-05-09T04:57:24.565Z,12.30
2018-05-09T04:59:52.205Z,12.40
2018-05-09T05:02:19.822Z,12.60
2018-05-09T05:04:47.483Z,12.80
2018-05-09T05:07:15.183Z,13.00
2018-05-09T05:09:42.828Z,13.10
2018-05-09T05:12:10.422Z,13.30
2018-05-09T05:14:38.081Z,13.30
2018-05-09T05:17:05.674Z,13.40
2018-05-09T05:19:34.051Z,13.60
2018-05-09T05:22:02.424Z,13.70
2018-05-09T05:24:30.154Z,13.70
2018-05-09T05:26:57.817Z,13.80
2018-05-09T05:29:25.419Z,14.00
2018-05-09T05:31:53.790Z,14.10
2018-05-09T05:34:21.402Z,14.10
2018-05-09T05:36:49.085Z,14.20
2018-05-09T05:39:16.807Z,14.40
2018-05-09T05:41:44.462Z,14.40
2018-05-09T05:44:12.078Z,14.50
2018-05-09T05:46:39.778Z,14.70
2018-05-09T05:49:07.376Z,14.70
2018-05-09T05:51:35.099Z,14.80
2018-05-09T05:54:02.698Z,14.80
2018-05-09T05:56:30.294Z,15.00
2018-05-09T05:58:57.897Z,15.10
2018-05-09T06:01:25.490Z,15.30
2018-05-09T06:03:53.087Z,15.30
2018-05-09T06:06:21.033Z,15.40
2018-05-09T06:08:48.637Z,15.50
2018-05-09T06:11:16.329Z,15.70
2018-05-09T06:13:43.962Z,15.80
2018-05-09T06:16:11.554Z,15.90
2018-05-09T06:18:39.149Z,16.00
2018-05-09T06:21:06.767Z,16.00
2018-05-09T06:23:34.365Z,16.10
2018-05-09T06:26:01.979Z,16.20
2018-05-09T06:28:29.591Z,16.30
2018-05-09T06:30:57.310Z,16.30
2018-05-09T06:33:24.859Z,16.30
2018-05-09T06:35:52.558Z,16.50
2018-05-09T06:38:20.176Z,16.50
2018-05-09T06:40:47.770Z,16.60
2018-05-09T06:43:15.430Z,16.80
2018-05-09T06:45:43.026Z,16.80
2018-05-09T06:48:10.628Z,17.00
2018-05-09T06:50:38.277Z,17.10
2018-05-09T06:53:05.885Z,17.20
2018-05-09T06:55:33.481Z,17.40
2018-05-09T06:58:01.110Z,17.40
2018-05-09T07:00:28.718Z,17.50
2018-05-09T07:02:56.315Z,17.70
2018-05-09T07:05:23.949Z,17.70
2018-05-09T07:07:51.562Z,17.90
2018-05-09T07:10:19.182Z,18.00
2018-05-09T07:12:46.798Z,18.10
2018-05-09T07:15:14.401Z,18.20
2018-05-09T07:17:41.997Z,18.30
2018-05-09T07:20:10.371Z,18.50
2018-05-09T07:22:37.973Z,18.50
2018-05-09T07:25:05.574Z,18.70
2018-05-09T07:27:33.201Z,18.70
2018-05-09T07:30:00.820Z,18.70
2018-05-09T07:32:29.187Z,18.90
2018-05-09T07:34:57.574Z,19.10
2018-05-09T07:37:25.184Z,19.00
2018-05-09T07:39:52.778Z,19.10
2018-05-09T07:42:20.390Z,19.20
2018-05-09T07:44:47.990Z,19.30
2018-05-09T07:47:15.606Z,19.40
2018-05-09T07:49:43.218Z,19.50
2018-05-09T07:52:10.821Z,19.60
2018-05-09T07:54:38.423Z,19.60
2018-05-09T07:57:06.043Z,19.60
2018-05-09T07:59:33.642Z,19.80
2018-05-09T08:02:01.247Z,19.90
2018-05-09T08:04:29.651Z,20.10
2018-05-09T08:06:57.271Z,20.10
2018-05-09T08:09:24.884Z,20.10
2018-05-09T08:11:52.515Z,20.30
2018-05-09T08:14:20.878Z,20.40
2018-05-09T08:16:49.253Z,20.50
2018-05-09T08:19:16.879Z,20.50
2018-05-09T08:21:44.477Z,20.60
2018-05-09T08:24:12.835Z,21.00
2018-05-09T08:26:40.451Z,20.90
2018-05-09T08:29:08.082Z,21.00
2018-05-09T08:31:36.450Z,21.20
2018-05-09T08:34:04.833Z,21.30
2018-05-09T08:36:32.522Z,21.30
2018-05-09T08:39:00.075Z,21.30
2018-05-09T08:41:27.681Z,21.40
2018-05-09T08:43:55.308Z,21.60
2018-05-09T08:46:22.910Z,21.60
2018-05-09T08:48:50.546Z,21.90
2018-05-09T08:51:18.151Z,21.90
2018-05-09T08:53:45.811Z,22.10
2018-05-09T08:56:13.527Z,22.10
2018-05-09T08:58:41.114Z,22.10
2018-05-09T09:01:08.715Z,22.20
2018-05-09T09:03:36.359Z,22.20
2018-05-09T09:06:04.726Z,22.40
2018-05-09T09:08:32.325Z,22.40
2018-05-09T09:10:59.938Z,22.50
2018-05-09T09:13:27.565Z,22.60
2018-05-09T09:15:55.157Z,22.60
2018-05-09T09:18:22.791Z,22.80
2018-05-09T09:20:50.455Z,22.80
2018-05-09T09:23:18.018Z,22.80
2018-05-09T09:25:45.654Z,22.90
2018-05-09T09:28:13.278Z,23.00
2018-05-09T09:30:40.874Z,23.10
2018-05-09T09:33:09.251Z,23.30
2018-05-09T09:35:36.861Z,23.30
2018-05-09T09:38:04.466Z,23.30
2018-05-09T09:40:32.078Z,23.50
2018-05-09T09:42:59.685Z,23.60
2018-05-09T09:45:27.290Z,23.70
2018-05-09T09:47:54.927Z,23.70
2018-05-09T09:50:22.518Z,23.80
2018-05-09T09:52:50.124Z,23.80
2018-05-09T09:55:17.738Z,23.90
2018-05-09T09:57:45.335Z,24.00
2018-05-09T10:00:13.698Z,24.00
2018-05-09T10:02:41.353Z,23.90
2018-05-09T10:05:08.992Z,24.10
2018-05-09T10:07:36.590Z,24.20
2018-05-09T10:10:04.990Z,24.10
2018-05-09T10:12:32.593Z,24.10
2018-05-09T10:15:00.191Z,24.10
2018-05-09T10:17:28.567Z,24.20
2018-05-09T10:19:56.179Z,24.20
2018-05-09T10:22:23.773Z,24.30
2018-05-09T10:24:51.401Z,24.30
2018-05-09T10:27:19.016Z,24.30
2018-05-09T10:29:46.626Z,24.40
2018-05-09T10:32:14.268Z,24.40
2018-05-09T10:34:41.874Z,24.50
2018-05-09T10:37:09.466Z,24.50
2018-05-09T10:39:37.102Z,24.60
2018-05-09T10:42:05.466Z,24.70
2018-05-09T10:44:33.068Z,24.70
2018-05-09T10:47:00.678Z,24.80
2018-05-09T10:49:28.298Z,24.90
2018-05-09T10:51:56.658Z,24.70
2018-05-09T10:54:24.273Z,24.70
2018-05-09T10:56:51.875Z,24.80
2018-05-09T10:59:19.485Z,24.80
2018-05-09T11:01:47.129Z,24.80
2018-05-09T11:04:14.734Z,24.80
2018-05-09T11:06:42.330Z,24.80
2018-05-09T11:09:09.958Z,24.70
2018-05-09T11:11:37.583Z,24.80
2018-05-09T11:14:05.186Z,24.80
2018-05-09T11:16:33.585Z,24.90
2018-05-09T11:19:01.180Z,24.80
2018-05-09T11:21:28.770Z,24.80
2018-05-09T11:23:56.378Z,24.90
2018-05-09T11:26:23.978Z,24.80
2018-05-09T11:28:51.650Z,24.80
2018-05-09T11:31:19.279Z,24.90
2018-05-09T11:33:46.885Z,24.80
2018-05-09T11:36:15.249Z,24.70
2018-05-09T11:38:42.864Z,24.60
2018-05-09T11:41:10.463Z,24.70
2018-05-09T11:43:38.058Z,24.60
2018-05-09T11:46:05.671Z,24.70
2018-05-09T11:48:34.066Z,24.90
2018-05-09T11:51:01.689Z,24.90
2018-05-09T11:53:29.442Z,25.00
2018-05-09T11:55:57.046Z,24.80
2018-05-09T11:58:24.675Z,24.90
2018-05-09T12:00:52.322Z,25.00
2018-05-09T12:03:20.029Z,25.00
2018-05-09T12:05:47.626Z,25.20
2018-05-09T12:08:15.253Z,25.20
2018-05-09T12:10:42.938Z,25.30
2018-05-09T12:13:10.474Z,25.30
2018-05-09T12:15:38.282Z,25.40
2018-05-09T12:18:05.984Z,25.50
2018-05-09T12:20:33.623Z,25.60
2018-05-09T12:23:01.288Z,25.80
2018-05-09T12:25:28.878Z,25.90
2018-05-09T12:27:56.536Z,26.30
2018-05-09T12:30:24.161Z,28.30
2018-05-09T12:32:51.785Z,28.80
2018-05-09T12:35:19.390Z,28.50
2018-05-09T12:37:47.031Z,28.40
2018-05-09T12:40:14.639Z,28.30
2018-05-09T12:42:42.302Z,28.70
2018-05-09T12:45:09.958Z,29.50
2018-05-09T12:47:37.554Z,30.20
2018-05-09T12:50:05.248Z,30.90
2018-05-09T12:52:32.857Z,31.30
2018-05-09T12:55:00.502Z,32.10
2018-05-09T12:57:28.139Z,32.70
2018-05-09T12:59:55.748Z,32.10
2018-05-09T13:02:24.194Z,33.80
2018-05-09T13:04:51.798Z,33.80
2018-05-09T13:07:20.216Z,34.00
2018-05-09T13:09:47.823Z,33.90
2018-05-09T13:12:17.229Z,34.50
2018-05-09T13:14:45.655Z,34.70
2018-05-09T13:17:13.257Z,34.70
2018-05-09T13:19:41.684Z,34.60
2018-05-09T13:22:09.445Z,34.60
2018-05-09T13:24:37.051Z,35.10
2018-05-09T13:27:04.691Z,35.30
2018-05-09T13:29:32.358Z,36.00
2018-05-09T13:31:59.954Z,35.10
2018-05-09T13:34:27.568Z,34.70
2018-05-09T13:36:55.207Z,35.70
2018-05-09T13:39:22.816Z,36.10
2018-05-09T13:41:50.427Z,35.90
2018-05-09T13:44:18.038Z,36.10
2018-05-09T13:46:45.682Z,36.10
2018-05-09T13:49:13.278Z,36.00
2018-05-09T13:51:41.018Z,36.40
2018-05-09T13:54:08.646Z,36.40
2018-05-09T13:56:36.298Z,36.10
2018-05-09T13:59:04.713Z,36.70
2018-05-09T14:01:32.323Z,36.60
2018-05-09T14:03:59.981Z,36.80
2018-05-09T14:06:27.603Z,36.60
2018-05-09T14:08:55.253Z,36.40
2018-05-09T14:11:22.855Z,36.20
2018-05-09T14:13:51.238Z,36.90
2018-05-09T14:16:19.594Z,36.50
2018-05-09T14:18:47.190Z,36.50
2018-05-09T14:21:14.799Z,35.60
2018-05-09T14:23:42.419Z,36.00
2018-05-09T14:26:10.014Z,35.20
2018-05-09T14:28:37.626Z,35.30
2018-05-09T14:31:05.230Z,34.60
2018-05-09T14:33:32.827Z,34.40
2018-05-09T14:36:01.283Z,34.50
2018-05-09T14:38:28.893Z,34.50
2018-05-09T14:40:57.254Z,34.50
2018-05-09T14:43:25.648Z,34.00
2018-05-09T14:45:53.242Z,34.00
2018-05-09T14:48:20.850Z,34.20
2018-05-09T14:50:49.275Z,33.90
2018-05-09T14:53:16.880Z,33.80
2018-05-09T14:55:45.242Z,34.30
2018-05-09T14:58:12.855Z,34.30
2018-05-09T15:00:40.454Z,33.50
2018-05-09T15:03:08.051Z,35.10
2018-05-09T15:05:36.431Z,35.90
2018-05-09T15:08:04.858Z,35.90
2018-05-09T15:10:32.457Z,35.90
2018-05-09T15:13:00.096Z,37.40
2018-05-09T15:15:27.694Z,37.00
2018-05-09T15:17:55.326Z,37.60
2018-05-09T15:20:22.938Z,37.30
2018-05-09T15:22:50.542Z,37.70
2018-05-09T15:25:18.149Z,38.10
2018-05-09T15:27:45.766Z,39.10
2018-05-09T15:30:13.362Z,39.40
2018-05-09T15:32:41.006Z,40.50
2018-05-09T15:35:08.612Z,39.40
2018-05-09T15:37:36.206Z,38.70
2018-05-09T15:40:03.967Z,37.00
2018-05-09T15:42:32.058Z,36.60
2018-05-09T15:44:59.660Z,36.30
2018-05-09T15:47:27.263Z,35.80
2018-05-09T15:49:54.897Z,32.80
2018-05-09T15:52:22.499Z,30.80
2018-05-09T15:54:50.107Z,29.10
2018-05-09T15:57:17.718Z,27.90
2018-05-09T15:59:45.358Z,26.80
2018-05-09T16:02:12.955Z,26.00
2018-05-09T16:04:40.573Z,25.40
2018-05-09T16:07:08.215Z,24.90
2018-05-09T16:09:35.873Z,24.80
2018-05-09T16:12:03.506Z,24.50
2018-05-09T16:14:31.106Z,24.10
2018-05-09T16:16:58.705Z,23.90
2018-05-09T16:19:27.079Z,23.40
2018-05-09T16:21:54.739Z,23.40
2018-05-09T16:24:22.403Z,23.20
2018-05-09T16:26:50.813Z,23.00
2018-05-09T16:29:18.415Z,23.00
2018-05-09T16:31:46.013Z,22.90
2018-05-09T16:34:14.421Z,22.70
2018-05-09T16:36:42.022Z,22.70
2018-05-09T16:39:09.659Z,22.60
2018-05-09T16:41:37.279Z,22.60
2018-05-09T16:44:04.926Z,22.50
2018-05-09T16:46:32.531Z,22.40
2018-05-09T16:49:00.198Z,22.30
2018-05-09T16:51:27.790Z,22.20
2018-05-09T16:53:55.394Z,22.20
2018-05-09T16:56:23.026Z,22.10
2018-05-09T16:58:51.445Z,21.90
2018-05-09T17:01:19.067Z,21.90
2018-05-09T17:03:46.724Z,21.80
2018-05-09T17:06:14.363Z,21.80
2018-05-09T17:08:42.012Z,21.70
2018-05-09T17:11:09.624Z,21.60
2018-05-09T17:13:37.281Z,21.50
2018-05-09T17:16:05.642Z,21.40
2018-05-09T17:18:34.076Z,21.30
2018-05-09T17:21:01.734Z,21.30
2018-05-09T17:23:29.390Z,21.20
2018-05-09T17:25:56.996Z,21.20
2018-05-09T17:28:24.629Z,21.10
2018-05-09T17:30:52.225Z,21.00
2018-05-09T17:33:19.894Z,21.00
2018-05-09T17:35:48.258Z,20.70
2018-05-09T17:38:15.910Z,20.70
2018-05-09T17:40:43.529Z,20.60
2018-05-09T17:43:11.168Z,20.50
2018-05-09T17:45:38.770Z,20.30
2018-05-09T17:48:06.423Z,20.10
2018-05-09T17:50:34.050Z,19.90
2018-05-09T17:53:01.656Z,19.70
2018-05-09T17:55:29.292Z,19.60
2018-05-09T17:57:56.886Z,19.50
2018-05-09T18:00:24.523Z,19.30
2018-05-09T18:02:52.162Z,19.10
2018-05-09T18:05:19.778Z,19.10
2018-05-09T18:07:47.389Z,19.00
2018-05-09T18:10:14.997Z,18.90
2018-05-09T18:12:42.589Z,18.70
2018-05-09T18:15:10.198Z,18.70
2018-05-09T18:17:37.916Z,18.60
2018-05-09T18:20:06.314Z,18.20
2018-05-09T18:22:33.966Z,18.20
2018-05-09T18:25:01.610Z,18.10
2018-05-09T18:27:29.988Z,17.60
2018-05-09T18:29:58.346Z,17.50
2018-05-09T18:32:25.958Z,17.40
2018-05-09T18:34:53.620Z,17.50
2018-05-09T18:37:21.274Z,17.40
2018-05-09T18:39:49.764Z,17.20
2018-05-09T18:42:17.372Z,17.10
2018-05-09T18:44:45.006Z,16.90
2018-05-09T18:47:12.710Z,16.80
2018-05-09T18:49:41.125Z,16.60
2018-05-09T18:52:08.796Z,16.60
2018-05-09T18:54:36.410Z,16.50
2018-05-09T18:57:04.798Z,16.40
2018-05-09T18:59:33.221Z,16.20
2018-05-09T19:02:00.866Z,16.20
2018-05-09T19:04:28.482Z,16.10
2018-05-09T19:06:56.850Z,16.10
2018-05-09T19:09:24.489Z,16.10
2018-05-09T19:11:52.142Z,16.00
2018-05-09T19:14:19.758Z,15.90
2018-05-09T19:16:48.176Z,15.70
2018-05-09T19:19:15.923Z,15.70
2018-05-09T19:21:43.510Z,15.60
2018-05-09T19:24:11.122Z,15.50
2018-05-09T19:26:38.824Z,15.40
2018-05-09T19:29:06.501Z,15.70
2018-05-09T19:31:34.135Z,15.50
2018-05-09T19:34:01.762Z,15.40
2018-05-09T19:36:30.138Z,15.20
2018-05-09T19:38:58.582Z,15.20
2018-05-09T19:41:26.318Z,15.20
2018-05-09T19:43:53.956Z,15.10
2018-05-09T19:46:21.623Z,15.10
2018-05-09T19:48:49.286Z,15.00
2018-05-09T19:51:17.064Z,14.90
2018-05-09T19:53:44.719Z,14.80
2018-05-09T19:56:12.324Z,14.70
2018-05-09T19:58:39.930Z,14.60
2018-05-09T20:01:07.574Z,14.50
2018-05-09T20:03:35.935Z,14.30
2018-05-09T20:06:03.555Z,14.30
2018-05-09T20:08:31.278Z,14.30
2018-05-09T20:10:58.818Z,14.20
2018-05-09T20:13:27.209Z,14.10
2018-05-09T20:15:55.595Z,14.00
2018-05-09T20:18:23.955Z,13.90
2018-05-09T20:20:52.330Z,13.90
2018-05-09T20:23:20.739Z,13.80
2018-05-09T20:25:48.334Z,13.70
2018-05-09T20:28:16.006Z,13.70
2018-05-09T20:30:49.323Z,13.70
2018-05-09T20:33:16.934Z,13.70
2018-05-09T20:35:44.539Z,13.60
2018-05-09T20:38:12.163Z,13.60
2018-05-09T20:40:39.758Z,13.50
2018-05-09T20:43:07.354Z,13.50
2018-05-09T20:45:34.982Z,13.40
2018-05-09T20:48:02.587Z,13.40
2018-05-09T20:50:30.286Z,13.40
2018-05-09T20:52:57.908Z,13.30
2018-05-09T20:55:28.364Z,13.30
2018-05-09T20:57:55.982Z,13.20
2018-05-09T21:00:23.646Z,13.00
2018-05-09T21:02:51.258Z,12.90
2018-05-09T21:05:18.892Z,12.90
2018-05-09T21:07:58.267Z,12.70
2018-05-09T21:10:25.866Z,12.70
2018-05-09T21:12:53.614Z,12.60
2018-05-09T21:15:22.016Z,12.50
2018-05-09T21:17:49.620Z,12.50
2018-05-09T21:20:17.233Z,12.40
2018-05-09T21:22:44.862Z,12.40
2018-05-09T21:25:13.227Z,12.20
2018-05-09T21:27:40.850Z,12.20
2018-05-09T21:30:08.489Z,12.20
2018-05-09T21:32:36.082Z,12.20
2018-05-09T21:35:03.688Z,12.10
2018-05-09T21:37:32.086Z,12.10
2018-05-09T21:39:59.690Z,12.10
2018-05-09T21:42:27.289Z,12.10
2018-05-09T21:44:55.666Z,12.00
2018-05-09T21:47:24.029Z,12.00
2018-05-09T21:49:51.651Z,11.90
2018-05-09T21:52:19.266Z,11.90
2018-05-09T21:54:47.647Z,11.80
2018-05-09T21:57:16.012Z,11.70
2018-05-09T21:59:44.398Z,11.60
2018-05-09T22:02:12.758Z,11.50
2018-05-09T22:04:40.380Z,11.50
2018-05-09T22:07:08.024Z,11.50
2018-05-09T22:09:36.401Z,11.40
2018-05-09T22:12:03.998Z,11.30
2018-05-09T22:14:31.670Z,11.40
2018-05-09T22:16:59.270Z,11.30
2018-05-09T22:19:26.876Z,11.20
2018-05-09T22:21:54.516Z,11.20
2018-05-09T22:24:22.881Z,11.10
2018-05-09T22:26:50.478Z,11.10
2018-05-09T22:29:18.105Z,11.10
2018-05-09T22:31:45.713Z,11.00
2018-05-09T22:34:13.336Z,10.90
2018-05-09T22:36:40.953Z,10.80
2018-05-09T22:39:08.564Z,10.70
2018-05-09T22:41:36.191Z,10.60
2018-05-09T22:44:04.590Z,10.60
2018-05-09T22:46:32.206Z,10.50
2018-05-09T22:48:59.807Z,10.60
2018-05-09T22:51:27.434Z,10.50
2018-05-09T22:53:55.882Z,10.80
2018-05-09T22:56:23.518Z,10.80
2018-05-09T22:58:51.890Z,10.60
2018-05-09T23:01:19.503Z,10.60
2018-05-09T23:03:47.110Z,10.60
2018-05-09T23:06:14.746Z,10.50
2018-05-09T23:08:42.345Z,10.40
2018-05-09T23:11:09.971Z,10.40
2018-05-09T23:13:37.622Z,10.30
2018-05-09T23:16:06.018Z,10.30
2018-05-09T23:18:33.614Z,10.30
2018-05-09T23:21:01.247Z,10.20
2018-05-09T23:23:28.890Z,10.10
2018-05-09T23:25:57.297Z,10.00
2018-05-09T23:28:25.701Z,10.00
2018-05-09T23:30:53.294Z,10.00
2018-05-09T23:33:20.926Z,10.00
2018-05-09T23:35:48.550Z,10.10
2018-05-09T23:38:16.150Z,10.10
2018-05-09T23:40:44.627Z,10.20
2018-05-09T23:43:12.218Z,10.20
2018-05-09T23:45:39.842Z,10.20
2018-05-09T23:48:07.439Z,10.20
2018-05-09T23:50:35.051Z,10.20
2018-05-09T23:53:02.683Z,10.20
2018-05-09T23:55:30.360Z,10.20
2018-05-09T23:57:58.010Z,10.20
